Grantfork, Illinois
Current Conditions -  °F | °C
As of 10:30 PM on Wednesday 26 Nov 2014 (Local Time) from KBLV Reporting Station
Light Rain Light Rain  
Wind Chill: 27°   Ceiling: 800
Heat Index: 32°   Visibility: 3mi
Dew Point: 32°   Wind: 5mph
Humidity: 100%   Direction: 360°N
Pressure: 30.13"   Gusts: NA
Location:  38.8004°N, 89.6795°W
Report Text: KBLV 270430Z AUTO 36004KT 3SM R14R/4000FT -RA BR OVC008 00/00 A3013 RMK AO2 UPE0359RAB0411
Loading
Personal Weather Stations






























Interactive Weather Map New forecast layout! Learn more

10-Day Weather Forecast

Advertisements
Track Severe Weather on mobile